Time;durP1;ratioP1;P1;durP2;ratioP2;P2;SDS_P1;SDS_P2;PMS_P1;PMS_P2;Temp;Humidity;BMP_temperature;BMP_pressure;BME280_temperature;BME280_humidity;BME280_pressure;Samples;Min_cycle;Max_cycle;Signal;HPM_P1;HPM_P2
2023/05/15 00:00:51;;;;;;;4.80;3.70;;;;;;;17.28;41.19;100969.88;107813;1288;21990;-61
2023/05/15 00:03:17;;;;;;;6.70;3.50;;;;;;;17.23;41.06;100968.08;108126;1288;21990;-59
2023/05/15 00:05:42;;;;;;;5.00;3.60;;;;;;;17.17;41.06;100966.13;108111;1288;21992;-61
2023/05/15 00:08:09;;;;;;;5.40;4.50;;;;;;;17.11;41.06;100962.23;108145;1288;22024;-59
2023/05/15 00:10:34;;;;;;;4.70;3.40;;;;;;;17.04;41.14;100962.07;108083;1288;21994;-62
2023/05/15 00:13:00;;;;;;;6.20;3.40;;;;;;;16.99;41.13;100956.91;108118;1288;21989;-59
2023/05/15 00:15:26;;;;;;;6.30;3.30;;;;;;;16.96;41.26;100953.79;108141;1288;21989;-61
2023/05/15 00:17:51;;;;;;;5.00;3.40;;;;;;;16.92;41.23;100950.69;108170;1288;22001;-60
2023/05/15 00:20:17;;;;;;;9.60;4.70;;;;;;;16.86;41.02;100947.67;108132;1288;23039;-59
2023/05/15 00:22:43;;;;;;;4.70;3.30;;;;;;;16.80;41.23;100942.53;108131;1288;21995;-61
2023/05/15 00:25:09;;;;;;;5.00;3.30;;;;;;;16.74;41.25;100944.49;108144;1288;21990;-60
2023/05/15 00:27:35;;;;;;;6.50;3.70;;;;;;;16.65;41.12;100944.55;108074;1288;21995;-60
2023/05/15 00:30:00;;;;;;;5.60;3.80;;;;;;;16.46;41.19;100945.60;108113;1288;21987;-60
2023/05/15 00:32:26;;;;;;;5.50;3.50;;;;;;;16.25;41.30;100945.14;108104;1288;21989;-60
2023/05/15 00:34:52;;;;;;;5.00;3.60;;;;;;;16.04;41.38;100938.95;108136;1288;22032;-59
2023/05/15 00:37:17;;;;;;;5.40;3.30;;;;;;;15.87;41.81;100940.25;108095;1288;22048;-60
2023/05/15 00:39:43;;;;;;;5.10;3.70;;;;;;;15.75;41.90;100946.90;107370;1288;1003114;-59
2023/05/15 00:42:09;;;;;;;6.20;3.60;;;;;;;15.67;42.08;100951.52;108155;1288;21989;-59
2023/05/15 00:44:35;;;;;;;6.00;3.50;;;;;;;15.64;42.10;100951.78;108107;1288;21992;-60
2023/05/15 00:47:01;;;;;;;6.10;3.60;;;;;;;15.66;41.98;100954.05;107868;1288;21991;-59
2023/05/15 00:49:28;;;;;;;6.50;3.90;;;;;;;15.70;41.98;100960.46;108170;1287;21992;-59
2023/05/15 00:51:55;;;;;;;6.00;3.20;;;;;;;15.72;41.96;100957.07;107847;1288;23821;-59
2023/05/15 00:54:21;;;;;;;4.30;3.30;;;;;;;15.68;41.68;100957.16;108253;1288;23625;-59
2023/05/15 00:56:46;;;;;;;5.90;2.90;;;;;;;15.65;41.72;100958.65;108110;1288;21993;-60
2023/05/15 00:59:12;;;;;;;8.30;3.30;;;;;;;15.57;41.68;100957.77;107887;1288;21992;-59
2023/05/15 01:01:38;;;;;;;5.30;3.20;;;;;;;15.43;41.47;100961.63;107864;1288;21992;-60
2023/05/15 01:04:04;;;;;;;5.00;2.90;;;;;;;15.34;41.59;100965.03;107878;1288;21995;-58
2023/05/15 01:06:30;;;;;;;6.30;3.50;;;;;;;15.25;41.63;100971.23;107915;1288;21968;-59
2023/05/15 01:08:58;;;;;;;10.10;4.10;;;;;;;15.16;41.72;100972.33;108141;1288;22008;-59
2023/05/15 01:11:26;;;;;;;8.80;4.60;;;;;;;15.08;41.95;100973.54;108181;1288;21992;-59
2023/05/15 01:13:52;;;;;;;6.70;4.10;;;;;;;15.00;42.09;100974.07;108104;1288;21998;-58
2023/05/15 01:16:20;;;;;;;6.00;4.00;;;;;;;14.94;42.27;100976.87;108106;1288;23635;-60
2023/05/15 01:18:45;;;;;;;5.50;3.40;;;;;;;14.90;42.50;100975.88;108154;1288;21996;-60
2023/05/15 01:21:29;;;;;;;5.20;3.50;;;;;;;14.87;42.63;100977.16;108088;1288;22008;-59
2023/05/15 01:24:23;;;;;;;4.80;3.10;;;;;;;14.81;42.55;100976.59;108165;1288;21993;-59
2023/05/15 01:27:04;;;;;;;5.60;3.50;;;;;;;14.74;42.68;100977.08;108111;1288;21999;-59
2023/05/15 01:29:35;;;;;;;6.00;3.70;;;;;;;14.68;42.83;100976.28;108154;1288;21999;-59
2023/05/15 01:32:08;;;;;;;5.10;3.20;;;;;;;14.66;42.82;100973.86;107950;1288;21987;-59
2023/05/15 01:35:06;;;;;;;7.10;3.80;;;;;;;14.66;42.91;100971.57;108148;1288;21985;-58
2023/05/15 01:37:31;;;;;;;4.90;3.00;;;;;;;14.64;42.87;100976.17;108067;1288;22101;-58
2023/05/15 01:40:00;;;;;;;7.80;3.40;;;;;;;14.61;43.01;100979.77;108003;1288;22031;-58
2023/05/15 01:42:29;;;;;;;6.70;3.40;;;;;;;14.54;42.84;100978.49;108119;1288;22024;-59
2023/05/15 01:44:55;;;;;;;7.20;3.60;;;;;;;14.44;42.82;100979.74;107904;1288;23637;-59
2023/05/15 01:47:24;;;;;;;6.70;3.10;;;;;;;14.34;42.71;100976.05;107995;1288;21989;-60
2023/05/15 01:49:49;;;;;;;6.90;3.20;;;;;;;14.26;42.83;100974.06;108130;1288;23105;-59
2023/05/15 01:52:17;;;;;;;5.50;3.40;;;;;;;14.22;43.01;100975.39;107917;1288;21997;-59
2023/05/15 01:54:43;;;;;;;5.60;3.50;;;;;;;14.18;43.03;100974.39;108167;1288;21992;-59
2023/05/15 01:57:10;;;;;;;4.20;3.70;;;;;;;14.14;43.14;100973.04;107861;1288;21990;-60
2023/05/15 01:59:36;;;;;;;6.70;3.40;;;;;;;14.09;43.26;100972.96;108188;1288;21956;-57
2023/05/15 02:02:03;;;;;;;7.40;3.60;;;;;;;14.03;43.29;100969.71;107959;1288;21981;-59
2023/05/15 02:04:29;;;;;;;4.60;2.90;;;;;;;14.00;43.35;100967.30;108130;1288;21998;-59
2023/05/15 02:06:55;;;;;;;5.00;2.90;;;;;;;14.02;43.35;100966.02;107882;1288;22031;-59
2023/05/15 02:09:20;;;;;;;5.50;3.10;;;;;;;14.09;43.26;100966.42;107985;1288;21988;-59
2023/05/15 02:11:46;;;;;;;5.00;2.80;;;;;;;14.15;43.18;100967.38;107886;1288;22001;-59
2023/05/15 02:14:12;;;;;;;7.90;3.20;;;;;;;14.21;43.12;100967.64;107896;1288;21985;-58
2023/05/15 02:16:38;;;;;;;6.10;3.70;;;;;;;14.25;43.03;100970.20;107882;1288;21995;-61
2023/05/15 02:19:03;;;;;;;4.90;3.20;;;;;;;14.25;42.97;100977.63;108168;1288;22105;-59
2023/05/15 02:21:29;;;;;;;9.40;3.90;;;;;;;14.20;42.97;100974.35;107877;1288;22000;-58
2023/05/15 02:23:55;;;;;;;14.00;3.90;;;;;;;14.14;42.98;100975.87;108154;1288;22457;-58
2023/05/15 02:26:24;;;;;;;6.80;3.20;;;;;;;14.10;43.18;100973.81;108077;1288;21986;-60
2023/05/15 02:28:58;;;;;;;7.70;3.30;;;;;;;14.11;43.15;100978.04;108140;1288;21991;-59
2023/05/15 02:31:37;;;;;;;5.20;2.90;;;;;;;14.12;43.15;100977.48;108097;1288;21994;-59
2023/05/15 02:34:23;;;;;;;5.50;3.00;;;;;;;14.15;43.30;100974.96;108198;1288;21984;-59
2023/05/15 02:36:49;;;;;;;6.70;3.10;;;;;;;14.21;43.48;100976.45;108074;1288;21999;-58
2023/05/15 02:39:15;;;;;;;12.40;3.60;;;;;;;14.26;43.47;100982.89;107134;1288;1003040;-58
2023/05/15 02:41:40;;;;;;;5.30;3.00;;;;;;;14.32;43.45;100983.85;107856;1288;21993;-60
2023/05/15 02:44:06;;;;;;;10.90;3.40;;;;;;;14.36;43.51;100987.66;107859;1288;21985;-60
2023/05/15 02:46:33;;;;;;;5.60;3.40;;;;;;;14.41;43.39;100986.67;108109;1287;21988;-59
2023/05/15 02:48:59;;;;;;;7.50;3.60;;;;;;;14.47;43.44;100984.64;107992;1287;22034;-59
2023/05/15 02:51:24;;;;;;;8.70;3.20;;;;;;;14.53;43.50;100983.48;107809;1287;22014;-59
2023/05/15 02:53:50;;;;;;;4.60;3.20;;;;;;;14.59;43.59;100978.40;108151;1287;21997;-59
2023/05/15 02:56:16;;;;;;;10.20;3.30;;;;;;;14.64;43.75;100976.54;107795;1287;22007;-60
2023/05/15 02:58:41;;;;;;;7.20;3.90;;;;;;;14.67;43.86;100972.23;108140;1287;21989;-59
2023/05/15 03:01:07;;;;;;;7.20;4.30;;;;;;;14.68;44.04;100972.39;108142;1287;22043;-61
2023/05/15 03:03:33;;;;;;;8.00;4.20;;;;;;;14.72;44.15;100973.59;108142;1287;22461;-59
2023/05/15 03:05:59;;;;;;;7.60;3.70;;;;;;;14.77;44.55;100973.51;108097;1287;21996;-59
2023/05/15 03:08:25;;;;;;;11.90;4.80;;;;;;;14.82;44.82;100972.16;108143;1288;21998;-58
2023/05/15 03:10:51;;;;;;;8.10;4.40;;;;;;;14.88;45.00;100972.38;108126;1287;22126;-61
2023/05/15 03:13:17;;;;;;;11.30;4.80;;;;;;;14.97;45.42;100970.62;108102;1286;21993;-59
2023/05/15 03:15:44;;;;;;;14.20;4.20;;;;;;;15.09;45.84;100971.95;108083;1287;22009;-60
2023/05/15 03:18:10;;;;;;;11.20;4.00;;;;;;;15.24;46.00;100971.60;108114;1287;21995;-59
2023/05/15 03:20:35;;;;;;;14.60;4.30;;;;;;;15.42;46.11;100971.73;108080;1284;21994;-61
2023/05/15 03:23:01;;;;;;;20.40;4.80;;;;;;;15.63;46.19;100967.35;108139;1287;21984;-59
2023/05/15 03:25:27;;;;;;;27.60;5.20;;;;;;;15.87;46.23;100963.07;108095;1287;21999;-59
2023/05/15 03:27:52;;;;;;;10.10;4.70;;;;;;;16.12;46.20;100962.10;108100;1288;21993;-60
2023/05/15 03:30:18;;;;;;;19.80;5.60;;;;;;;16.35;46.03;100964.68;108090;1288;21989;-59
2023/05/15 03:32:44;;;;;;;15.80;5.20;;;;;;;16.57;45.94;100963.20;108081;1288;21989;-61
2023/05/15 03:35:10;;;;;;;14.50;4.60;;;;;;;16.79;46.04;100965.41;108164;1287;22028;-60
2023/05/15 03:37:36;;;;;;;9.10;4.50;;;;;;;17.05;45.90;100968.09;105859;1288;1002533;-60
2023/05/15 03:40:01;;;;;;;9.90;4.70;;;;;;;17.27;45.66;100969.17;108068;1283;21984;-58
2023/05/15 03:42:28;;;;;;;9.90;3.90;;;;;;;17.48;45.75;100970.11;108094;1287;21991;-60
2023/05/15 03:44:55;;;;;;;11.00;3.80;;;;;;;17.70;45.79;100965.15;108190;1287;22515;-60
2023/05/15 03:47:20;;;;;;;9.90;4.20;;;;;;;17.91;45.79;100961.81;108127;1287;21997;-59
2023/05/15 03:49:46;;;;;;;9.10;4.30;;;;;;;18.14;45.92;100960.20;108144;1287;21978;-61
2023/05/15 03:52:12;;;;;;;13.80;4.90;;;;;;;18.34;45.88;100958.60;108136;1287;23715;-60
2023/05/15 03:54:37;;;;;;;13.60;4.80;;;;;;;18.56;45.78;100954.98;107933;1288;21998;-60
2023/05/15 03:57:03;;;;;;;10.10;4.80;;;;;;;18.77;46.05;100951.18;107960;1288;21992;-61
2023/05/15 03:59:29;;;;;;;7.20;4.30;;;;;;;18.94;46.98;100950.36;107902;1288;21994;-60
2023/05/15 04:01:55;;;;;;;10.40;4.10;;;;;;;19.07;46.53;100946.35;108125;1287;22001;-60
2023/05/15 04:04:21;;;;;;;16.20;5.20;;;;;;;19.22;46.00;100940.25;108067;1288;22009;-58
2023/05/15 04:06:48;;;;;;;12.60;4.90;;;;;;;19.43;46.03;100935.87;108113;1287;22104;-61
2023/05/15 04:09:13;;;;;;;6.60;4.10;;;;;;;19.65;46.09;100936.23;108203;1287;22028;-60
2023/05/15 04:11:39;;;;;;;10.50;4.20;;;;;;;19.85;45.96;100932.54;108142;1287;23657;-60
2023/05/15 04:14:06;;;;;;;12.90;5.00;;;;;;;20.05;45.78;100929.39;108050;1287;21991;-60
2023/05/15 04:16:32;;;;;;;10.70;4.40;;;;;;;20.23;45.56;100930.05;108069;1287;21986;-58
2023/05/15 04:18:58;;;;;;;9.10;4.30;;;;;;;20.40;45.53;100931.11;108126;1287;22030;-59
2023/05/15 04:21:24;;;;;;;8.60;4.00;;;;;;;20.54;45.37;100927.44;108094;1287;22166;-60
2023/05/15 04:23:50;;;;;;;5.50;3.50;;;;;;;20.67;45.70;100923.85;108221;1287;23698;-60
2023/05/15 04:26:16;;;;;;;7.20;4.00;;;;;;;20.74;45.54;100922.08;107968;1287;22844;-61
2023/05/15 04:28:41;;;;;;;8.50;3.70;;;;;;;20.82;45.68;100916.56;107943;1287;21998;-59
2023/05/15 04:31:07;;;;;;;5.00;3.60;;;;;;;20.87;45.52;100915.42;108051;1284;22009;-59
2023/05/15 04:33:33;;;;;;;6.30;3.90;;;;;;;20.91;45.50;100914.36;108109;1286;22027;-59
2023/05/15 04:36:00;;;;;;;6.40;3.90;;;;;;;20.95;45.30;100918.47;107970;1288;23612;-58
2023/05/15 04:38:26;;;;;;;8.70;3.80;;;;;;;20.95;45.23;100917.77;108079;1287;21987;-58
2023/05/15 04:40:52;;;;;;;6.60;3.30;;;;;;;20.97;44.80;100918.55;108142;1287;22000;-59
2023/05/15 04:43:18;;;;;;;7.10;3.60;;;;;;;21.09;44.81;100922.27;108055;1287;23071;-59
2023/05/15 04:45:43;;;;;;;9.70;3.70;;;;;;;21.23;44.42;100924.10;108021;1287;21989;-57
2023/05/15 04:48:09;;;;;;;10.80;3.70;;;;;;;21.39;44.32;100923.70;108044;1287;21987;-57
2023/05/15 04:50:35;;;;;;;10.00;3.70;;;;;;;21.54;44.23;100928.83;108071;1287;21984;-60
2023/05/15 04:53:01;;;;;;;11.80;4.20;;;;;;;21.69;44.08;100929.92;108088;1287;21991;-60
2023/05/15 04:55:27;;;;;;;8.20;3.80;;;;;;;21.81;43.85;100935.90;108170;1287;22029;-59
2023/05/15 04:57:53;;;;;;;12.10;3.80;;;;;;;21.93;43.65;100932.08;108131;1287;21990;-58
2023/05/15 05:00:19;;;;;;;9.90;3.40;;;;;;;22.04;43.36;100933.30;108116;1287;21992;-59
2023/05/15 05:02:45;;;;;;;8.70;3.80;;;;;;;22.15;43.12;100933.82;108138;1287;21989;-58
2023/05/15 05:05:13;;;;;;;9.00;3.80;;;;;;;22.26;43.07;100932.04;108119;1287;23701;-60
2023/05/15 05:07:39;;;;;;;7.60;4.00;;;;;;;22.36;42.91;100931.88;108185;1287;21988;-60
2023/05/15 05:10:06;;;;;;;7.40;3.50;;;;;;;22.45;42.85;100929.80;108140;1287;21993;-58
2023/05/15 05:12:32;;;;;;;5.80;3.50;;;;;;;22.52;42.93;100924.97;108191;1287;21993;-58
2023/05/15 05:14:57;;;;;;;6.20;3.20;;;;;;;22.50;42.59;100923.42;108148;1287;21992;-60
2023/05/15 05:17:23;;;;;;;5.90;3.20;;;;;;;22.55;42.52;100924.59;108142;1287;21990;-58
2023/05/15 05:19:49;;;;;;;8.20;3.10;;;;;;;22.64;42.37;100924.29;108199;1287;21990;-58
2023/05/15 05:22:15;;;;;;;6.20;3.10;;;;;;;22.75;42.39;100925.48;108150;1287;21992;-58
2023/05/15 05:24:40;;;;;;;6.30;2.60;;;;;;;22.86;42.42;100925.25;108116;1287;22012;-58
2023/05/15 05:27:06;;;;;;;9.70;3.60;;;;;;;23.01;42.68;100923.20;108140;1287;21999;-59
2023/05/15 05:29:31;;;;;;;8.90;3.30;;;;;;;23.18;42.67;100920.12;108086;1287;21990;-60
2023/05/15 05:31:57;;;;;;;8.30;3.00;;;;;;;23.38;42.75;100915.79;108034;1287;22174;-61
2023/05/15 05:34:23;;;;;;;7.50;3.10;;;;;;;23.58;42.58;100914.95;108031;1287;22160;-59
2023/05/15 05:36:48;;;;;;;7.50;3.80;;;;;;;23.71;42.02;100917.05;108045;1287;21992;-61
2023/05/15 05:39:17;;;;;;;5.40;2.60;;;;;;;23.84;42.13;100918.43;108093;1287;21986;-60
2023/05/15 05:41:44;;;;;;;4.80;3.00;;;;;;;24.03;42.18;100916.44;108100;1287;23054;-60
2023/05/15 05:44:10;;;;;;;5.60;3.00;;;;;;;24.23;42.05;100916.67;108040;1287;21990;-58
2023/05/15 05:46:35;;;;;;;8.10;3.10;;;;;;;24.43;41.75;100918.36;108087;1287;21984;-59
2023/05/15 05:49:01;;;;;;;4.30;2.50;;;;;;;24.63;41.75;100916.90;108100;1287;21985;-60
2023/05/15 05:51:27;;;;;;;5.10;3.00;;;;;;;24.91;41.93;100916.23;108068;1287;21987;-61
2023/05/15 05:53:52;;;;;;;5.00;2.80;;;;;;;25.21;40.76;100914.48;108087;1287;22058;-60
2023/05/15 05:56:18;;;;;;;5.60;3.10;;;;;;;25.42;40.03;100903.65;108030;1287;22188;-59
2023/05/15 05:58:43;;;;;;;5.80;2.70;;;;;;;25.61;40.27;100899.36;108049;1284;21990;-59
2023/05/15 06:01:09;;;;;;;5.70;2.50;;;;;;;25.81;40.06;100900.50;108056;1287;21995;-60
2023/05/15 06:03:35;;;;;;;7.40;2.90;;;;;;;25.97;39.95;100893.11;107853;1287;21999;-59
2023/05/15 06:06:01;;;;;;;5.80;3.00;;;;;;;26.13;39.85;100894.21;108022;1287;22089;-60
2023/05/15 06:08:28;;;;;;;5.60;3.40;;;;;;;26.29;39.76;100895.79;108087;1287;22051;-60
2023/05/15 06:10:54;;;;;;;13.80;4.60;;;;;;;26.46;39.46;100893.73;108033;1287;22007;-60
2023/05/15 06:13:19;;;;;;;9.30;4.30;;;;;;;26.61;38.88;100895.56;108047;1284;21995;-59
2023/05/15 06:15:46;;;;;;;8.80;3.50;;;;;;;26.74;38.55;100894.60;108040;1287;21985;-59
2023/05/15 06:18:12;;;;;;;9.60;3.30;;;;;;;26.90;37.93;100894.71;108115;1288;21990;-60
2023/05/15 06:20:38;;;;;;;5.90;3.50;;;;;;;27.06;36.87;100896.96;108124;1288;22458;-60
2023/05/15 06:23:03;;;;;;;6.20;3.10;;;;;;;27.19;37.00;100897.82;108105;1288;21987;-60
2023/05/15 06:25:29;;;;;;;7.80;3.80;;;;;;;27.38;37.44;100901.67;108113;1288;21993;-59
2023/05/15 06:27:55;;;;;;;8.40;4.20;;;;;;;27.63;37.45;100903.37;108103;1288;21998;-59
2023/05/15 06:30:21;;;;;;;6.30;4.00;;;;;;;27.88;36.49;100906.38;108094;1288;22011;-60
2023/05/15 06:32:46;;;;;;;5.00;2.90;;;;;;;28.01;34.49;100904.13;108122;1288;22012;-61
2023/05/15 06:35:12;;;;;;;10.00;3.40;;;;;;;28.05;34.68;100905.42;108074;1286;21989;-59
2023/05/15 06:37:38;;;;;;;14.20;4.50;;;;;;;28.13;34.79;100909.73;108115;1288;22000;-62
2023/05/15 06:40:05;;;;;;;6.80;2.50;;;;;;;28.18;34.25;100912.94;108135;1288;22077;-60
2023/05/15 06:42:31;;;;;;;3.80;2.40;;;;;;;28.12;32.61;100911.95;108116;1288;21989;-60
2023/05/15 06:44:58;;;;;;;4.90;2.50;;;;;;;28.00;32.93;100909.23;108070;1288;21999;-60
2023/05/15 06:47:26;;;;;;;29.00;5.50;;;;;;;27.95;32.72;100907.98;108077;1284;21987;-60
2023/05/15 06:49:52;;;;;;;11.70;2.80;;;;;;;27.94;32.88;100901.75;108081;1288;21990;-60
2023/05/15 06:52:19;;;;;;;5.50;2.50;;;;;;;27.98;31.67;100898.37;108095;1287;22027;-60
2023/05/15 06:54:45;;;;;;;4.90;2.60;;;;;;;27.97;31.60;100894.35;108124;1288;23705;-60
2023/05/15 06:57:11;;;;;;;4.10;2.10;;;;;;;28.01;31.31;100893.96;108121;1288;22015;-61
2023/05/15 06:59:37;;;;;;;4.30;2.60;;;;;;;28.15;31.44;100894.36;108169;1280;21960;-60
2023/05/15 07:02:03;;;;;;;4.80;2.20;;;;;;;28.38;32.50;100895.86;108091;1288;21986;-61
2023/05/15 07:04:32;;;;;;;4.60;2.30;;;;;;;28.69;32.77;100889.02;108139;1287;21988;-60
2023/05/15 07:06:58;;;;;;;8.80;3.00;;;;;;;28.90;30.42;100884.62;108167;1287;21978;-60
2023/05/15 07:09:24;;;;;;;4.60;2.40;;;;;;;28.93;29.38;100883.36;108124;1287;22008;-60
2023/05/15 07:11:49;;;;;;;8.70;2.70;;;;;;;28.89;29.14;100883.36;108209;1287;21992;-61
2023/05/15 07:14:15;;;;;;;7.20;2.50;;;;;;;28.84;29.30;100881.96;108133;1287;22071;-60
2023/05/15 07:16:41;;;;;;;5.40;2.50;;;;;;;28.85;29.38;100879.72;108143;1287;21989;-62
2023/05/15 07:19:09;;;;;;;4.70;2.40;;;;;;;28.79;28.84;100872.20;108116;1286;21989;-60
2023/05/15 07:21:35;;;;;;;6.70;2.50;;;;;;;28.71;28.65;100875.48;108081;1287;22024;-60
2023/05/15 07:24:01;;;;;;;5.50;3.00;;;;;;;28.60;28.33;100871.70;108068;1287;21989;-59
2023/05/15 07:26:26;;;;;;;5.30;2.40;;;;;;;28.43;27.74;100877.59;108069;1287;21997;-59
2023/05/15 07:28:52;;;;;;;5.10;2.30;;;;;;;28.34;28.28;100882.96;108110;1287;21992;-60
2023/05/15 07:31:19;;;;;;;5.20;2.70;;;;;;;28.30;28.47;100887.78;108107;1287;21990;-63
2023/05/15 07:33:45;;;;;;;4.80;2.10;;;;;;;28.29;28.46;100888.61;108211;1287;21994;-61
2023/05/15 07:36:10;;;;;;;4.70;2.40;;;;;;;28.26;28.28;100891.40;108054;1287;22177;-60
2023/05/15 07:38:36;;;;;;;3.90;2.60;;;;;;;28.26;28.83;100893.00;108086;1284;21987;-61
2023/05/15 07:41:02;;;;;;;4.40;2.70;;;;;;;28.36;28.72;100892.09;108073;1280;22448;-60
2023/05/15 07:43:28;;;;;;;3.80;2.20;;;;;;;28.48;28.52;100887.80;108142;1287;22229;-60
2023/05/15 07:45:53;;;;;;;6.00;2.90;;;;;;;28.63;28.38;100887.94;108079;1287;22220;-62
2023/05/15 07:48:19;;;;;;;4.80;2.00;;;;;;;28.80;28.17;100885.70;108106;1287;21992;-60
2023/05/15 07:50:46;;;;;;;4.70;2.30;;;;;;;28.99;28.27;100878.66;108058;1287;21992;-61
2023/05/15 07:53:12;;;;;;;4.60;2.40;;;;;;;29.23;28.43;100878.86;108093;1287;21987;-60
2023/05/15 07:55:40;;;;;;;3.30;2.30;;;;;;;29.47;28.03;100872.00;108091;1287;21985;-61
2023/05/15 07:58:06;;;;;;;5.20;2.20;;;;;;;29.67;27.45;100869.30;108109;1287;22956;-60
2023/05/15 08:00:35;;;;;;;5.80;2.30;;;;;;;29.82;26.98;100865.11;108093;1281;23074;-60
2023/05/15 08:03:00;;;;;;;3.90;2.60;;;;;;;29.91;26.34;100860.37;108045;1287;22196;-60
2023/05/15 08:05:26;;;;;;;3.40;2.30;;;;;;;30.01;26.50;100865.50;108092;1287;21994;-61
2023/05/15 08:07:52;;;;;;;9.70;2.40;;;;;;;30.08;26.44;100861.23;108073;1287;21995;-62
2023/05/15 08:10:17;;;;;;;3.50;2.30;;;;;;;30.10;25.98;100862.18;108100;1287;21990;-60
2023/05/15 08:12:45;;;;;;;5.20;2.40;;;;;;;30.07;25.67;100860.42;108073;1287;21959;-61
2023/05/15 08:15:11;;;;;;;7.20;2.80;;;;;;;30.07;25.63;100857.70;108126;1288;21989;-60
2023/05/15 08:17:37;;;;;;;5.90;2.60;;;;;;;30.12;26.13;100853.83;108129;1288;21989;-60
2023/05/15 08:20:04;;;;;;;3.80;2.20;;;;;;;30.24;25.76;100853.54;108135;1288;21987;-60
2023/05/15 08:22:30;;;;;;;5.10;2.30;;;;;;;30.31;25.02;100854.37;108113;1288;21999;-62
2023/05/15 08:24:58;;;;;;;8.90;2.30;;;;;;;30.33;24.78;100847.64;107816;1287;21993;-62
2023/05/15 08:27:24;;;;;;;4.30;2.30;;;;;;;30.25;24.22;100847.86;108119;1288;22648;-61
2023/05/15 08:29:51;;;;;;;3.80;1.90;;;;;;;30.23;24.63;100844.54;108101;1288;22008;-60
2023/05/15 08:32:17;;;;;;;3.60;2.20;;;;;;;30.18;24.15;100846.27;108091;1288;21998;-62
2023/05/15 08:34:43;;;;;;;4.00;2.10;;;;;;;30.20;24.69;100845.58;108121;1288;22692;-60
2023/05/15 08:37:08;;;;;;;11.50;2.90;;;;;;;30.28;24.83;100845.58;108123;1287;21989;-60
2023/05/15 08:39:34;;;;;;;4.30;2.40;;;;;;;30.42;24.90;100849.01;108149;1287;21986;-60
2023/05/15 08:42:13;;;;;;;5.90;2.50;;;;;;;30.63;24.94;100853.73;108125;1287;21999;-62
2023/05/15 08:44:39;;;;;;;7.10;2.30;;;;;;;30.69;24.19;100854.23;108132;1287;21987;-60
2023/05/15 08:47:05;;;;;;;2.50;1.90;;;;;;;30.56;23.29;100848.59;108166;1287;23558;-62
2023/05/15 08:50:00;;;;;;;4.00;1.80;;;;;;;30.47;23.65;100851.34;109430;1288;23683;-60
2023/05/15 08:52:26;;;;;;;3.80;2.20;;;;;;;30.67;24.53;100852.80;108102;1288;22804;-63
2023/05/15 08:54:52;;;;;;;6.00;2.50;;;;;;;30.86;23.90;100849.70;107951;1288;198320;-62
2023/05/15 08:57:17;;;;;;;4.20;2.00;;;;;;;30.73;23.42;100847.41;108094;1288;22019;-62
2023/05/15 08:59:43;;;;;;;5.30;2.40;;;;;;;30.73;23.90;100848.11;107868;1288;21996;-62
2023/05/15 09:02:09;;;;;;;5.70;2.80;;;;;;;30.87;24.09;100843.07;107840;1288;21996;-63
2023/05/15 09:04:35;;;;;;;3.50;2.20;;;;;;;30.92;23.78;100848.53;108134;1288;22000;-62
2023/05/15 09:07:01;;;;;;;7.70;2.20;;;;;;;30.96;23.81;100844.62;108170;1287;22031;-60
2023/05/15 09:09:27;;;;;;;6.00;2.50;;;;;;;31.06;23.80;100839.55;108141;1287;22029;-62
2023/05/15 09:11:52;;;;;;;3.30;2.10;;;;;;;31.18;24.10;100833.56;108874;1287;23631;-61
2023/05/15 09:14:18;;;;;;;3.70;2.10;;;;;;;31.32;23.68;100835.92;107735;1287;22741;-62
2023/05/15 09:16:45;;;;;;;3.60;2.30;;;;;;;31.47;23.65;100832.33;108093;1287;23628;-60
2023/05/15 09:19:11;;;;;;;3.90;2.20;;;;;;;31.62;23.38;100830.55;108087;1287;22314;-60
2023/05/15 09:21:37;;;;;;;5.00;2.10;;;;;;;31.63;22.94;100827.04;108056;1287;21989;-60
2023/05/15 09:24:27;;;;;;;6.80;2.20;;;;;;;31.59;23.02;100822.63;108064;1287;21984;-62
2023/05/15 09:27:06;;;;;;;2.40;1.80;;;;;;;31.62;23.50;100824.77;108023;1287;21987;-61
2023/05/15 09:29:33;;;;;;;3.00;1.90;;;;;;;31.69;23.39;100819.78;108166;1287;23717;-60
2023/05/15 09:32:03;;;;;;;7.70;2.30;;;;;;;31.76;22.99;100814.19;108119;1287;21991;-62
2023/05/15 09:34:33;;;;;;;;;;;;;;;31.79;22.64;100813.75;108210;1287;23724;-62
2023/05/15 09:37:00;;;;;;;4.20;2.10;;;;;;;31.85;23.24;100812.06;108092;1284;21984;-62
2023/05/15 09:39:26;;;;;;;5.60;1.90;;;;;;;32.02;22.68;100815.15;107942;1287;23039;-59
2023/05/15 09:41:52;;;;;;;6.90;2.00;;;;;;;32.08;22.64;100815.48;108132;1287;21986;-61
2023/05/15 09:44:24;;;;;;;18.20;2.30;;;;;;;32.09;22.57;100819.54;108163;1287;21992;-63
2023/05/15 09:46:51;;;;;;;10.00;2.30;;;;;;;32.05;22.23;100829.61;108149;1287;22044;-61
2023/05/15 09:49:18;;;;;;;6.50;2.10;;;;;;;31.89;21.95;100820.73;108186;1287;22030;-60
2023/05/15 09:51:43;;;;;;;2.70;1.60;;;;;;;31.80;22.27;100820.70;108184;1287;21991;-60
2023/05/15 09:54:14;;;;;;;4.00;1.80;;;;;;;31.75;22.61;100813.75;107976;1287;21988;-60
2023/05/15 09:56:42;;;;;;;5.30;1.70;;;;;;;31.81;22.94;100815.56;108163;1287;21986;-60
2023/05/15 09:59:09;;;;;;;5.30;1.90;;;;;;;31.94;22.63;100814.48;108163;1287;21989;-63
2023/05/15 10:01:35;;;;;;;3.70;2.30;;;;;;;32.03;22.33;100816.73;107841;1276;22743;-60
2023/05/15 10:04:02;;;;;;;4.20;2.10;;;;;;;32.04;22.13;100824.61;108177;1287;22006;-59
2023/05/15 10:06:38;;;;;;;3.70;1.90;;;;;;;32.00;22.02;100827.48;108161;1287;21985;-60
2023/05/15 10:09:05;;;;;;;11.30;2.50;;;;;;;31.98;22.35;100823.67;107975;1287;22015;-61
2023/05/15 10:11:35;;;;;;;3.70;1.70;;;;;;;32.04;22.24;100823.48;108056;1286;22007;-61
2023/05/15 10:14:02;;;;;;;4.70;2.10;;;;;;;32.00;22.08;100830.65;108125;1288;21991;-61
2023/05/15 10:16:28;;;;;;;3.30;1.80;;;;;;;32.02;22.26;100831.66;108233;1287;21986;-61
2023/05/15 10:18:54;;;;;;;3.30;2.20;;;;;;;32.09;22.33;100830.29;107865;1288;21989;-60
2023/05/15 10:21:19;;;;;;;3.00;2.00;;;;;;;32.12;22.17;100824.42;107813;1288;21996;-59
2023/05/15 10:23:45;;;;;;;3.50;1.90;;;;;;;32.15;22.20;100823.77;107823;1288;21996;-61
2023/05/15 10:26:21;;;;;;;4.20;1.80;;;;;;;32.24;22.20;100809.44;107698;1288;21986;-60
2023/05/15 10:28:46;;;;;;;4.80;2.00;;;;;;;32.27;21.76;100804.08;107874;1284;22023;-60
2023/05/15 10:31:12;;;;;;;11.30;3.30;;;;;;;32.13;21.81;100810.14;107716;1288;22000;-62
2023/05/15 10:33:38;;;;;;;6.20;2.10;;;;;;;32.15;21.98;100807.55;107830;1288;21989;-60
2023/05/15 10:36:03;;;;;;;6.20;2.30;;;;;;;32.18;22.00;100809.05;107850;1288;22025;-61
2023/05/15 10:38:30;;;;;;;4.50;2.10;;;;;;;32.15;21.87;100805.23;107843;1288;22021;-60
2023/05/15 10:40:57;;;;;;;7.90;2.20;;;;;;;32.09;21.96;100803.05;107817;1288;21978;-62
2023/05/15 10:43:23;;;;;;;9.60;2.40;;;;;;;32.09;21.98;100801.80;108182;1288;23032;-60
2023/05/15 10:45:48;;;;;;;3.50;1.80;;;;;;;32.15;22.31;100794.33;107832;1288;21993;-61
2023/05/15 10:48:14;;;;;;;4.20;2.20;;;;;;;32.24;21.98;100797.88;107814;1288;23644;-61
2023/05/15 10:50:40;;;;;;;4.20;1.90;;;;;;;32.27;21.97;100801.36;107837;1288;22047;-62
2023/05/15 10:53:05;;;;;;;3.60;2.00;;;;;;;32.35;22.22;100801.69;108090;1288;22003;-62
2023/05/15 10:55:32;;;;;;;3.40;1.70;;;;;;;32.42;21.60;100797.89;108095;1288;23730;-60
2023/05/15 10:57:58;;;;;;;3.60;1.90;;;;;;;32.24;21.29;100791.45;107711;1288;21997;-62
2023/05/15 11:00:28;;;;;;;4.30;2.20;;;;;;;32.16;21.80;100789.52;107835;1288;22045;-63
2023/05/15 11:02:55;;;;;;;4.00;2.40;;;;;;;32.18;22.01;100785.69;108145;1288;22589;-60
2023/05/15 11:05:22;;;;;;;4.30;2.20;;;;;;;32.31;21.76;100786.04;108150;1288;21992;-60
2023/05/15 11:08:22;;;;;;;3.90;2.50;;;;;;;32.34;21.47;100785.06;107851;1288;21986;-63
2023/05/15 11:10:49;;;;;;;5.80;2.10;;;;;;;32.39;21.85;100780.59;108130;1288;21986;-63
2023/05/15 11:13:15;;;;;;;7.50;2.00;;;;;;;32.50;22.12;100783.82;107810;1288;22023;-63
2023/05/15 11:15:44;;;;;;;5.80;2.40;;;;;;;32.55;21.83;100790.27;108105;1288;22026;-60